createdAt,value
2023-04-15T00:02:16.726Z,9.70
2023-04-15T00:06:22.589Z,9.80
2023-04-15T00:10:25.641Z,9.90
2023-04-15T00:14:28.226Z,10.00
2023-04-15T00:18:31.713Z,10.10
2023-04-15T00:22:34.390Z,10.10
2023-04-15T00:26:36.862Z,10.10
2023-04-15T00:30:39.611Z,10.00
2023-04-15T00:34:42.630Z,10.10
2023-04-15T00:38:45.153Z,9.80
2023-04-15T00:42:48.410Z,9.50
2023-04-15T00:46:51.768Z,9.10
2023-04-15T00:50:54.336Z,8.90
2023-04-15T00:54:56.845Z,8.70
2023-04-15T00:58:59.818Z,8.60
2023-04-15T01:03:03.337Z,8.60
2023-04-15T01:07:05.982Z,8.60
2023-04-15T01:11:08.546Z,8.60
2023-04-15T01:15:11.273Z,8.50
2023-04-15T01:19:14.498Z,8.60
2023-04-15T01:23:17.517Z,8.60
2023-04-15T01:27:20.777Z,8.60
2023-04-15T01:31:23.328Z,8.60
2023-04-15T01:35:25.881Z,8.50
2023-04-15T01:39:28.625Z,8.50
2023-04-15T01:43:32.507Z,8.40
2023-04-15T01:47:36.260Z,8.20
2023-04-15T01:51:40.280Z,8.00
2023-04-15T01:55:44.489Z,8.00
2023-04-15T01:59:51.698Z,8.00
2023-04-15T02:03:55.567Z,8.00
2023-04-15T02:07:59.432Z,8.10
2023-04-15T02:12:03.249Z,8.10
2023-04-15T02:16:15.734Z,8.20
2023-04-15T02:20:21.408Z,8.10
2023-04-15T02:24:25.134Z,8.20
2023-04-15T02:28:28.899Z,8.30
2023-04-15T02:32:33.014Z,8.40
2023-04-15T02:36:36.980Z,8.50
2023-04-15T02:40:42.388Z,8.50
2023-04-15T02:44:46.198Z,8.50
2023-04-15T02:48:50.371Z,8.60
2023-04-15T02:52:54.404Z,8.60
2023-04-15T02:56:58.211Z,8.50
2023-04-15T03:01:02.512Z,8.50
2023-04-15T03:05:07.066Z,8.50
2023-04-15T03:09:11.388Z,8.50
2023-04-15T03:13:16.470Z,8.60
2023-04-15T03:17:21.908Z,8.60
2023-04-15T03:21:26.768Z,8.60
2023-04-15T03:25:31.065Z,8.80
2023-04-15T03:29:37.026Z,8.90
2023-04-15T03:33:41.583Z,8.90
2023-04-15T03:37:45.283Z,8.90
2023-04-15T03:41:49.046Z,9.00
2023-04-15T03:45:52.832Z,8.90
2023-04-15T03:49:56.701Z,8.90
2023-04-15T03:54:00.627Z,8.90
2023-04-15T03:58:04.672Z,8.80
2023-04-15T04:02:08.469Z,8.80
2023-04-15T04:06:12.958Z,8.70
2023-04-15T04:10:16.945Z,8.80
2023-04-15T04:14:20.668Z,8.80
2023-04-15T04:18:24.386Z,8.90
2023-04-15T04:22:28.271Z,8.90
2023-04-15T04:26:32.108Z,8.90
2023-04-15T04:30:35.906Z,8.90
2023-04-15T04:34:40.090Z,9.00
2023-04-15T04:38:44.033Z,8.90
2023-04-15T04:42:48.109Z,9.00
2023-04-15T04:46:51.846Z,9.00
2023-04-15T04:50:55.802Z,9.00
2023-04-15T04:54:59.618Z,9.10
2023-04-15T04:59:03.553Z,9.00
2023-04-15T05:03:07.735Z,9.00
2023-04-15T05:07:12.326Z,9.00
2023-04-15T05:11:16.274Z,9.00
2023-04-15T05:15:20.690Z,9.00
2023-04-15T05:19:24.477Z,9.00
2023-04-15T05:23:28.185Z,9.10
2023-04-15T05:27:32.081Z,9.10
2023-04-15T05:31:36.503Z,9.20
2023-04-15T05:35:40.648Z,9.20
2023-04-15T05:39:45.645Z,9.30
2023-04-15T05:43:49.374Z,9.40
2023-04-15T05:47:54.588Z,9.50
2023-04-15T05:51:58.394Z,9.40
2023-04-15T05:56:02.572Z,9.50
2023-04-15T06:00:06.927Z,9.60
2023-04-15T06:04:13.815Z,9.70
2023-04-15T06:08:17.923Z,9.90
2023-04-15T06:12:21.899Z,10.00
2023-04-15T06:16:26.230Z,10.00
2023-04-15T06:20:30.301Z,10.10
2023-04-15T06:24:34.285Z,10.20
2023-04-15T06:28:38.085Z,10.20
2023-04-15T06:32:42.104Z,10.20
2023-04-15T06:36:45.966Z,10.10
2023-04-15T06:40:49.754Z,10.00
2023-04-15T06:44:54.082Z,9.90
2023-04-15T06:49:00.389Z,9.80
2023-04-15T06:53:04.437Z,9.80
2023-04-15T06:57:09.341Z,9.70
2023-04-15T07:01:14.256Z,9.60
2023-04-15T07:05:19.053Z,9.60
2023-04-15T07:09:23.864Z,9.70
2023-04-15T07:13:27.813Z,9.80
2023-04-15T07:17:34.707Z,9.80
2023-04-15T07:21:41.261Z,9.90
2023-04-15T07:25:45.587Z,9.90
2023-04-15T07:29:52.097Z,9.90
2023-04-15T07:33:55.980Z,9.90
2023-04-15T07:37:59.736Z,9.80
2023-04-15T07:42:04.235Z,9.80
2023-04-15T07:46:08.528Z,9.80
2023-04-15T07:50:13.499Z,9.90
2023-04-15T07:54:17.314Z,9.80
2023-04-15T07:58:21.062Z,9.80
2023-04-15T08:02:26.468Z,9.90
2023-04-15T08:06:30.754Z,10.00
2023-04-15T08:10:41.966Z,10.10
2023-04-15T08:14:58.653Z,10.20
2023-04-15T08:19:03.935Z,10.40
2023-04-15T08:23:07.916Z,10.50
2023-04-15T08:27:11.776Z,10.70
2023-04-15T08:31:16.922Z,11.00
2023-04-15T08:35:21.286Z,11.40
2023-04-15T08:39:25.141Z,11.70
2023-04-15T08:43:33.598Z,12.00
2023-04-15T08:47:39.257Z,12.10
2023-04-15T08:51:47.039Z,12.20
2023-04-15T08:56:08.507Z,12.30
2023-04-15T09:00:20.733Z,12.40
2023-04-15T09:04:24.914Z,12.50
2023-04-15T09:08:28.680Z,12.60
2023-04-15T09:12:34.616Z,12.70
2023-04-15T09:16:58.191Z,12.60
2023-04-15T09:21:08.842Z,12.80
2023-04-15T09:25:23.131Z,13.00
2023-04-15T09:29:27.103Z,13.00
2023-04-15T09:33:31.080Z,13.10
2023-04-15T09:37:35.821Z,13.20
2023-04-15T09:41:40.438Z,13.30
2023-04-15T09:45:48.308Z,13.20
2023-04-15T09:49:56.590Z,13.20
2023-04-15T09:54:00.565Z,13.10
2023-04-15T09:58:09.038Z,13.00
2023-04-15T10:02:13.773Z,13.00
2023-04-15T10:06:18.191Z,13.00
2023-04-15T10:10:22.167Z,12.90
2023-04-15T10:14:27.045Z,12.80
2023-04-15T10:18:32.574Z,12.80
2023-04-15T10:22:37.020Z,12.90
2023-04-15T10:26:41.373Z,13.00
2023-04-15T10:30:46.189Z,13.10
2023-04-15T10:34:53.147Z,13.10
2023-04-15T11:58:58.581Z,15.10
